createdAt,value
2019-05-19T00:01:03.968Z,10.90
2019-05-19T00:05:59.633Z,10.80
2019-05-19T00:10:55.210Z,10.80
2019-05-19T00:15:50.774Z,10.90
2019-05-19T00:20:46.800Z,10.90
2019-05-19T00:25:42.348Z,10.90
2019-05-19T00:30:37.950Z,10.80
2019-05-19T00:35:34.935Z,10.80
2019-05-19T00:40:30.434Z,10.70
2019-05-19T00:45:25.982Z,10.70
2019-05-19T00:50:21.486Z,10.60
2019-05-19T00:55:17.966Z,10.60
2019-05-19T01:00:13.659Z,10.60
2019-05-19T01:05:09.409Z,10.40
2019-05-19T01:10:05.625Z,10.30
2019-05-19T01:15:01.165Z,10.20
2019-05-19T01:19:57.825Z,10.20
2019-05-19T01:24:53.312Z,10.20
2019-05-19T01:29:48.805Z,10.30
2019-05-19T01:34:44.897Z,10.20
2019-05-19T01:39:40.382Z,10.10
2019-05-19T01:44:35.864Z,10.00
2019-05-19T01:49:31.358Z,10.00
2019-05-19T01:54:27.974Z,10.00
2019-05-19T01:59:23.465Z,9.90
2019-05-19T02:04:19.008Z,9.90
2019-05-19T02:09:14.573Z,9.90
2019-05-19T02:14:10.094Z,9.80
2019-05-19T02:19:12.510Z,9.80
2019-05-19T02:24:08.186Z,9.80
2019-05-19T02:29:07.553Z,9.70
2019-05-19T02:34:07.671Z,9.70
2019-05-19T02:39:08.137Z,9.70
2019-05-19T02:44:05.613Z,9.70
2019-05-19T02:49:02.862Z,9.70
2019-05-19T02:54:00.615Z,9.60
2019-05-19T02:58:57.440Z,9.60
2019-05-19T03:03:52.996Z,9.50
2019-05-19T03:08:48.537Z,9.40
2019-05-19T03:13:44.191Z,9.40
2019-05-19T03:18:39.660Z,9.40
2019-05-19T03:23:35.115Z,9.40
2019-05-19T03:28:30.623Z,9.40
2019-05-19T03:33:28.736Z,9.40
2019-05-19T03:38:24.801Z,9.30
2019-05-19T03:43:20.304Z,9.30
2019-05-19T03:48:15.789Z,9.40
2019-05-19T03:53:11.252Z,9.40
2019-05-19T03:58:06.722Z,9.50
2019-05-19T04:03:02.214Z,9.50
2019-05-19T04:07:57.701Z,9.60
2019-05-19T04:12:53.192Z,9.60
2019-05-19T04:17:48.674Z,9.60
2019-05-19T04:22:44.276Z,9.70
2019-05-19T04:27:39.857Z,9.80
2019-05-19T04:32:35.309Z,9.80
2019-05-19T04:37:30.883Z,10.00
2019-05-19T04:42:26.719Z,10.10
2019-05-19T04:47:22.186Z,10.20
2019-05-19T04:52:17.694Z,10.40
2019-05-19T04:57:17.418Z,10.60
2019-05-19T05:02:15.874Z,10.90
2019-05-19T05:07:11.398Z,11.00
2019-05-19T05:12:06.927Z,11.10
2019-05-19T05:17:03.505Z,11.10
2019-05-19T05:21:58.986Z,11.20
2019-05-19T05:26:54.554Z,11.20
2019-05-19T05:31:50.178Z,11.30
2019-05-19T05:36:45.719Z,11.40
2019-05-19T05:41:41.194Z,11.50
2019-05-19T05:46:36.676Z,11.60
2019-05-19T05:51:32.198Z,11.70
2019-05-19T05:56:27.738Z,12.10
2019-05-19T06:01:23.251Z,12.30
2019-05-19T06:06:18.817Z,12.40
2019-05-19T06:11:22.747Z,12.60
2019-05-19T06:16:39.442Z,12.80
2019-05-19T06:21:50.432Z,12.90
2019-05-19T06:26:45.912Z,13.00
2019-05-19T06:31:42.130Z,13.20
2019-05-19T06:36:37.687Z,13.40
2019-05-19T06:41:33.242Z,13.60
2019-05-19T06:46:28.847Z,13.80
2019-05-19T06:51:24.438Z,14.00
2019-05-19T06:56:19.986Z,14.20
2019-05-19T07:01:15.524Z,14.30
2019-05-19T07:06:11.080Z,14.50
2019-05-19T07:11:06.643Z,14.70
2019-05-19T07:16:02.175Z,15.00
2019-05-19T07:20:57.764Z,15.20
2019-05-19T07:25:53.733Z,15.50
2019-05-19T07:30:49.737Z,15.60
2019-05-19T07:35:45.381Z,15.70
2019-05-19T07:40:40.951Z,16.00
2019-05-19T07:45:36.642Z,16.20
2019-05-19T07:50:32.234Z,16.30
2019-05-19T07:55:27.959Z,16.60
2019-05-19T08:00:23.596Z,16.90
2019-05-19T08:05:19.134Z,17.10
2019-05-19T08:10:14.799Z,17.20
2019-05-19T08:15:11.423Z,17.20
2019-05-19T08:20:07.501Z,17.10
2019-05-19T08:25:04.579Z,17.30
2019-05-19T08:30:00.192Z,17.50
2019-05-19T08:34:55.731Z,17.60
2019-05-19T08:39:51.746Z,17.70
2019-05-19T08:44:48.287Z,17.80
2019-05-19T08:49:43.929Z,17.90
2019-05-19T08:54:39.462Z,18.10
2019-05-19T08:59:36.115Z,18.40
2019-05-19T09:04:31.671Z,18.60
2019-05-19T09:09:27.317Z,18.90
2019-05-19T09:14:23.020Z,18.80
2019-05-19T09:19:18.574Z,18.70
2019-05-19T09:24:29.301Z,18.80
2019-05-19T09:29:11.464Z,19.10
2019-05-19T09:34:07.099Z,19.50
2019-05-19T09:39:05.052Z,19.80
2019-05-19T09:44:00.709Z,20.00
2019-05-19T09:49:14.614Z,20.10
2019-05-19T09:54:10.351Z,20.50
2019-05-19T09:59:06.959Z,21.00
2019-05-19T10:04:02.588Z,21.30
2019-05-19T10:08:59.231Z,21.50
2019-05-19T10:13:55.631Z,21.50
2019-05-19T10:18:51.344Z,21.40
2019-05-19T10:23:46.943Z,21.30
2019-05-19T10:28:42.578Z,21.30
2019-05-19T10:33:38.282Z,21.20
2019-05-19T10:38:33.862Z,21.30
2019-05-19T10:43:29.423Z,21.30
2019-05-19T10:48:25.179Z,21.30
2019-05-19T10:53:20.806Z,21.30
2019-05-19T10:58:16.385Z,20.90
2019-05-19T11:03:12.082Z,20.80
2019-05-19T11:08:09.462Z,20.70
2019-05-19T11:13:05.207Z,20.50
2019-05-19T11:18:00.794Z,20.20
2019-05-19T11:22:56.910Z,20.10
2019-05-19T11:27:52.479Z,20.20
2019-05-19T11:32:48.482Z,20.20
2019-05-19T11:37:46.842Z,20.40
2019-05-19T11:42:42.465Z,20.60
2019-05-19T11:47:37.980Z,21.10
2019-05-19T11:52:33.610Z,21.50
2019-05-19T11:57:29.162Z,21.70
2019-05-19T12:02:24.726Z,22.00
2019-05-19T12:07:20.290Z,22.30
2019-05-19T12:12:15.842Z,22.10
2019-05-19T12:17:11.481Z,22.30
2019-05-19T12:22:07.004Z,22.20
2019-05-19T12:27:02.538Z,21.80
2019-05-19T12:31:58.066Z,21.60
2019-05-19T12:36:53.734Z,21.20
2019-05-19T12:41:49.295Z,20.90
2019-05-19T12:46:44.856Z,20.30
2019-05-19T12:51:40.561Z,19.80
2019-05-19T12:56:39.537Z,19.40
2019-05-19T13:01:33.534Z,18.50
2019-05-19T13:06:29.291Z,17.80
2019-05-19T13:11:25.048Z,17.40
2019-05-19T13:16:22.787Z,16.90
2019-05-19T13:21:20.306Z,16.80
2019-05-19T13:26:15.974Z,16.70
2019-05-19T13:31:11.818Z,16.80
2019-05-19T13:36:08.481Z,17.00
2019-05-19T13:41:04.914Z,17.20
2019-05-19T13:46:00.595Z,17.80
2019-05-19T13:50:56.287Z,18.60
2019-05-19T13:55:51.903Z,19.00
2019-05-19T14:00:47.662Z,19.40
2019-05-19T14:05:43.460Z,19.50
2019-05-19T14:10:39.027Z,19.40
2019-05-19T14:15:34.647Z,19.30
2019-05-19T14:20:30.199Z,19.10
2019-05-19T14:25:25.822Z,19.00
2019-05-19T14:30:21.402Z,18.90
2019-05-19T14:35:17.055Z,18.90
2019-05-19T14:40:13.748Z,18.90
2019-05-19T14:45:32.579Z,18.90
2019-05-19T14:50:28.295Z,18.60
2019-05-19T14:55:23.988Z,18.40
2019-05-19T15:00:21.135Z,18.10
2019-05-19T15:05:16.869Z,17.80
2019-05-19T15:10:12.583Z,17.60
2019-05-19T15:15:08.390Z,17.40
2019-05-19T15:20:07.912Z,17.20
2019-05-19T15:25:05.024Z,17.00
2019-05-19T15:30:12.448Z,16.90
2019-05-19T15:34:58.006Z,16.80
2019-05-19T15:39:53.711Z,16.80
2019-05-19T15:44:49.448Z,16.90
2019-05-19T15:49:45.108Z,16.90
2019-05-19T15:54:40.674Z,17.00
2019-05-19T15:59:36.297Z,17.10
2019-05-19T16:04:31.956Z,16.90
2019-05-19T16:09:27.548Z,16.90
2019-05-19T16:14:23.178Z,17.10
2019-05-19T16:19:18.752Z,17.20
2019-05-19T16:24:14.331Z,17.40
2019-05-19T16:29:09.958Z,17.40
2019-05-19T16:34:05.644Z,17.30
2019-05-19T16:44:16.311Z,17.10
2019-05-19T16:49:11.960Z,17.10
2019-05-19T16:54:12.068Z,17.20
2019-05-19T16:59:07.727Z,17.40
2019-05-19T17:04:25.419Z,17.40
2019-05-19T17:09:21.100Z,17.50
2019-05-19T17:14:16.683Z,17.60
2019-05-19T17:19:10.531Z,17.60
2019-05-19T17:24:06.162Z,17.50
2019-05-19T17:29:02.157Z,17.40
2019-05-19T17:33:58.659Z,17.20
2019-05-19T17:38:54.318Z,17.10
2019-05-19T17:43:50.057Z,17.00
2019-05-19T17:48:45.632Z,16.80
2019-05-19T17:53:41.651Z,16.70
2019-05-19T17:58:37.542Z,16.60
2019-05-19T18:03:35.501Z,16.50
2019-05-19T18:08:31.102Z,16.40
2019-05-19T18:13:48.415Z,16.30
2019-05-19T18:18:44.141Z,16.10
2019-05-19T18:23:41.071Z,16.10
2019-05-19T18:28:36.657Z,16.80
2019-05-19T18:33:33.554Z,17.40
2019-05-19T18:38:30.408Z,17.50
2019-05-19T18:43:26.413Z,16.90
2019-05-19T18:48:23.436Z,16.30
2019-05-19T18:53:21.214Z,15.90
2019-05-19T18:58:17.492Z,16.30
2019-05-19T19:03:13.906Z,16.30
2019-05-19T19:08:11.146Z,15.90
2019-05-19T19:13:12.264Z,15.60
2019-05-19T19:18:08.127Z,15.30
2019-05-19T19:23:09.488Z,15.10
2019-05-19T19:28:05.494Z,15.30
2019-05-19T19:33:01.821Z,15.20
2019-05-19T19:37:57.998Z,15.10
2019-05-19T19:42:54.393Z,15.00
2019-05-19T19:47:50.125Z,14.70
2019-05-19T19:52:47.291Z,15.20
2019-05-19T19:57:43.352Z,15.20
2019-05-19T20:02:39.467Z,15.00
2019-05-19T20:07:35.511Z,14.80
2019-05-19T20:12:34.043Z,14.70
2019-05-19T20:17:31.313Z,14.70
2019-05-19T20:22:27.827Z,14.50
2019-05-19T20:27:23.765Z,14.50
2019-05-19T20:32:19.620Z,14.40
2019-05-19T20:37:16.806Z,14.20
2019-05-19T20:42:12.997Z,14.10
2019-05-19T20:47:09.223Z,13.90
2019-05-19T20:52:05.178Z,13.90
2019-05-19T20:57:00.834Z,13.80
2019-05-19T21:01:56.391Z,13.70
2019-05-19T21:06:53.000Z,13.70
2019-05-19T21:11:48.543Z,13.70
2019-05-19T21:16:44.599Z,14.10
2019-05-19T21:22:02.595Z,14.10
2019-05-19T21:26:58.107Z,13.90
2019-05-19T21:31:53.662Z,13.70
2019-05-19T21:36:49.170Z,13.50
2019-05-19T21:41:44.726Z,13.30
2019-05-19T21:46:40.390Z,13.20
2019-05-19T21:51:35.930Z,13.20
2019-05-19T21:56:31.495Z,13.20
2019-05-19T22:01:27.090Z,13.10
2019-05-19T22:06:24.318Z,13.10
2019-05-19T22:11:19.889Z,13.00
2019-05-19T22:16:15.472Z,12.90
2019-05-19T22:21:11.053Z,12.90
2019-05-19T22:26:06.550Z,12.90
2019-05-19T22:31:06.358Z,12.90
2019-05-19T22:36:01.975Z,12.90
2019-05-19T22:40:57.482Z,12.90
2019-05-19T22:45:53.055Z,12.80
2019-05-19T22:50:48.588Z,12.80
2019-05-19T22:55:45.256Z,12.80
2019-05-19T23:00:40.841Z,12.80
2019-05-19T23:05:36.447Z,12.70
2019-05-19T23:10:32.063Z,12.80
2019-05-19T23:15:27.671Z,12.80
2019-05-19T23:20:23.514Z,12.70
2019-05-19T23:25:19.169Z,12.70
2019-05-19T23:30:14.893Z,12.70
2019-05-19T23:35:10.505Z,12.60
2019-05-19T23:40:06.399Z,12.60
2019-05-19T23:45:01.940Z,12.60
2019-05-19T23:49:58.652Z,12.50
2019-05-19T23:54:54.223Z,12.50
2019-05-19T23:59:49.785Z,12.50
